createdAt,value
2018-08-16T00:01:08.574Z,51.20
2018-08-16T00:03:36.961Z,51.20
2018-08-16T00:06:05.426Z,51.30
2018-08-16T00:08:33.824Z,51.50
2018-08-16T00:11:02.210Z,51.60
2018-08-16T00:13:30.672Z,51.70
2018-08-16T00:15:59.115Z,51.80
2018-08-16T00:18:27.581Z,52.00
2018-08-16T00:20:56.021Z,52.00
2018-08-16T00:23:24.480Z,52.10
2018-08-16T00:25:52.991Z,52.20
2018-08-16T00:28:21.486Z,52.20
2018-08-16T00:30:49.942Z,53.10
2018-08-16T00:33:18.335Z,52.30
2018-08-16T00:35:46.789Z,52.40
2018-08-16T00:38:15.223Z,52.40
2018-08-16T00:40:43.740Z,52.50
2018-08-16T00:43:12.167Z,52.50
2018-08-16T00:45:40.667Z,52.50
2018-08-16T00:48:09.136Z,52.60
2018-08-16T00:50:37.582Z,52.50
2018-08-16T00:53:06.418Z,52.50
2018-08-16T00:55:34.819Z,52.50
2018-08-16T00:58:03.267Z,52.60
2018-08-16T01:00:31.814Z,52.60
2018-08-16T01:03:00.287Z,52.60
2018-08-16T01:05:28.727Z,53.40
2018-08-16T01:07:57.148Z,52.70
2018-08-16T01:10:25.756Z,52.70
2018-08-16T01:12:54.159Z,53.40
2018-08-16T01:15:22.563Z,52.70
2018-08-16T01:17:50.975Z,52.70
2018-08-16T01:20:19.437Z,52.70
2018-08-16T01:22:47.863Z,52.70
2018-08-16T01:25:16.258Z,52.70
2018-08-16T01:27:44.675Z,52.70
2018-08-16T01:30:13.106Z,52.70
2018-08-16T01:32:41.545Z,52.70
2018-08-16T01:35:10.513Z,52.30
2018-08-16T01:37:39.187Z,52.80
2018-08-16T01:40:08.268Z,52.80
2018-08-16T01:42:37.614Z,52.80
2018-08-16T01:45:06.019Z,52.70
2018-08-16T01:47:34.435Z,52.80
2018-08-16T01:50:02.871Z,52.80
2018-08-16T01:52:31.267Z,52.70
2018-08-16T01:54:59.679Z,52.70
2018-08-16T01:57:28.089Z,52.70
2018-08-16T01:59:56.555Z,53.40
2018-08-16T02:02:24.945Z,52.70
2018-08-16T02:04:53.371Z,52.70
2018-08-16T02:07:21.781Z,52.70
2018-08-16T02:09:50.167Z,52.70
2018-08-16T02:12:18.614Z,52.70
2018-08-16T02:14:47.032Z,52.80
2018-08-16T02:17:15.439Z,52.90
2018-08-16T02:19:43.893Z,52.80
2018-08-16T02:22:12.331Z,52.80
2018-08-16T02:24:40.765Z,52.80
2018-08-16T02:27:09.208Z,52.90
2018-08-16T02:29:37.639Z,52.80
2018-08-16T02:32:06.117Z,52.80
2018-08-16T02:34:34.531Z,52.80
2018-08-16T02:37:02.957Z,52.80
2018-08-16T02:39:31.367Z,52.90
2018-08-16T02:41:59.833Z,52.90
2018-08-16T02:44:28.424Z,52.90
2018-08-16T02:46:56.872Z,52.90
2018-08-16T02:49:25.286Z,52.90
2018-08-16T02:51:53.737Z,52.90
2018-08-16T02:54:22.183Z,52.90
2018-08-16T02:56:50.587Z,52.90
2018-08-16T02:59:18.981Z,52.80
2018-08-16T03:01:47.366Z,52.90
2018-08-16T03:04:15.809Z,53.00
2018-08-16T03:06:44.280Z,53.00
2018-08-16T03:09:12.676Z,52.90
2018-08-16T03:11:41.158Z,53.00
2018-08-16T03:14:09.548Z,52.90
2018-08-16T03:16:37.968Z,52.90
2018-08-16T03:19:06.392Z,52.90
2018-08-16T03:21:34.794Z,53.00
2018-08-16T03:24:03.219Z,52.90
2018-08-16T03:26:31.645Z,52.90
2018-08-16T03:29:00.075Z,52.90
2018-08-16T03:31:28.489Z,52.90
2018-08-16T03:33:56.936Z,52.90
2018-08-16T03:36:25.341Z,52.90
2018-08-16T03:38:53.771Z,52.90
2018-08-16T03:41:22.209Z,53.00
2018-08-16T03:43:50.639Z,53.00
2018-08-16T03:46:19.215Z,53.10
2018-08-16T03:48:47.610Z,53.00
2018-08-16T03:51:16.020Z,53.00
2018-08-16T03:53:44.434Z,53.00
2018-08-16T03:56:12.895Z,53.10
2018-08-16T03:58:41.350Z,53.10
2018-08-16T04:01:10.074Z,53.10
2018-08-16T04:03:38.495Z,53.00
2018-08-16T04:06:06.903Z,53.00
2018-08-16T04:08:35.310Z,53.00
2018-08-16T04:11:03.724Z,53.00
2018-08-16T04:13:32.120Z,53.10
2018-08-16T04:16:00.524Z,53.10
2018-08-16T04:18:29.061Z,53.10
2018-08-16T04:20:57.481Z,53.10
2018-08-16T04:23:25.879Z,53.10
2018-08-16T04:25:54.364Z,53.10
2018-08-16T04:28:22.756Z,53.10
2018-08-16T04:30:51.184Z,53.20
2018-08-16T04:33:19.712Z,53.20
2018-08-16T04:35:48.150Z,53.20
2018-08-16T04:38:16.751Z,53.10
2018-08-16T04:40:45.166Z,53.20
2018-08-16T04:43:13.604Z,53.80
2018-08-16T04:45:42.003Z,53.10
2018-08-16T04:48:10.608Z,53.20
2018-08-16T04:50:39.047Z,53.20
2018-08-16T04:53:07.852Z,53.20
2018-08-16T04:55:36.264Z,53.20
2018-08-16T04:58:04.999Z,53.20
2018-08-16T05:00:33.441Z,53.20
2018-08-16T05:03:01.854Z,53.20
2018-08-16T05:05:30.279Z,53.20
2018-08-16T05:07:58.709Z,53.20
2018-08-16T05:10:27.139Z,53.20
2018-08-16T05:12:55.608Z,53.20
2018-08-16T05:15:24.029Z,53.20
2018-08-16T05:17:52.480Z,53.60
2018-08-16T05:20:20.893Z,53.90
2018-08-16T05:22:49.342Z,54.30
2018-08-16T05:25:17.954Z,54.60
2018-08-16T05:27:46.356Z,54.90
2018-08-16T05:30:14.771Z,55.00
2018-08-16T05:32:43.435Z,55.00
2018-08-16T05:35:11.867Z,55.00
2018-08-16T05:37:40.259Z,55.10
2018-08-16T05:40:10.127Z,54.90
2018-08-16T05:42:39.120Z,54.60
2018-08-16T05:45:08.132Z,54.20
2018-08-16T05:47:36.955Z,54.00
2018-08-16T05:50:07.835Z,53.90
2018-08-16T05:52:36.230Z,53.50
2018-08-16T05:55:04.918Z,53.50
2018-08-16T05:57:33.419Z,54.30
2018-08-16T06:00:01.820Z,54.10
2018-08-16T06:02:30.276Z,53.40
2018-08-16T06:04:58.701Z,52.70
2018-08-16T06:07:27.115Z,52.30
2018-08-16T06:09:55.574Z,52.40
2018-08-16T06:12:23.979Z,52.20
2018-08-16T06:14:52.389Z,52.20
2018-08-16T06:17:20.822Z,52.10
2018-08-16T06:19:49.242Z,52.10
2018-08-16T06:22:17.671Z,52.10
2018-08-16T06:24:46.114Z,52.10
2018-08-16T06:27:14.543Z,52.70
2018-08-16T06:29:42.978Z,52.10
2018-08-16T06:32:11.553Z,52.20
2018-08-16T06:34:40.003Z,52.20
2018-08-16T06:37:08.471Z,52.80
2018-08-16T06:39:36.878Z,52.30
2018-08-16T06:42:05.553Z,52.40
2018-08-16T06:44:33.952Z,52.40
2018-08-16T06:47:02.421Z,52.50
2018-08-16T06:49:30.832Z,52.60
2018-08-16T06:51:59.719Z,52.60
2018-08-16T06:54:28.146Z,52.70
2018-08-16T06:56:56.515Z,52.80
2018-08-16T06:59:24.905Z,52.90
2018-08-16T07:01:53.342Z,53.00
2018-08-16T07:04:21.722Z,53.10
2018-08-16T07:06:50.048Z,53.10
2018-08-16T07:09:18.381Z,53.20
2018-08-16T07:11:46.708Z,53.40
2018-08-16T07:14:15.034Z,53.40
2018-08-16T07:16:43.413Z,53.40
2018-08-16T07:19:11.754Z,53.50
2018-08-16T07:21:40.105Z,53.50
2018-08-16T07:24:08.448Z,53.60
2018-08-16T07:26:36.774Z,53.60
2018-08-16T07:29:05.256Z,53.70
2018-08-16T07:31:33.605Z,53.80
2018-08-16T07:34:01.977Z,53.70
2018-08-16T07:36:30.381Z,53.80
2018-08-16T07:38:58.756Z,53.80
2018-08-16T07:41:27.071Z,53.90
2018-08-16T07:43:55.465Z,53.90
2018-08-16T07:46:24.005Z,54.00
2018-08-16T07:48:52.344Z,54.10
2018-08-16T07:51:20.904Z,54.10
2018-08-16T07:53:49.201Z,54.10
2018-08-16T07:56:17.560Z,54.10
2018-08-16T07:58:45.904Z,54.10
2018-08-16T08:01:14.249Z,54.20
2018-08-16T08:03:42.580Z,54.10
2018-08-16T08:06:10.936Z,54.20
2018-08-16T08:08:39.283Z,54.20
2018-08-16T08:11:07.622Z,54.20
2018-08-16T08:13:36.008Z,53.80
2018-08-16T08:16:04.342Z,54.20
2018-08-16T08:18:32.715Z,54.30
2018-08-16T08:21:01.105Z,54.20
2018-08-16T08:23:29.472Z,54.30
2018-08-16T08:25:57.832Z,54.30
2018-08-16T08:28:26.144Z,54.20
2018-08-16T08:30:54.501Z,54.20
2018-08-16T08:33:22.855Z,54.20
2018-08-16T08:36:02.906Z,54.20
2018-08-16T08:38:31.498Z,54.10
2018-08-16T08:40:59.844Z,54.20
2018-08-16T08:44:36.416Z,54.20
2018-08-16T08:47:04.842Z,54.20
2018-08-16T08:49:33.264Z,54.20
2018-08-16T08:52:01.688Z,54.20
2018-08-16T08:54:50.064Z,54.30
2018-08-16T08:57:30.216Z,54.30
2018-08-16T08:59:58.643Z,54.30
2018-08-16T09:02:27.052Z,54.30
2018-08-16T09:04:55.479Z,54.30
2018-08-16T09:07:24.430Z,54.30
2018-08-16T09:11:08.724Z,54.20
2018-08-16T09:13:48.574Z,54.20
2018-08-16T09:16:25.250Z,54.20
2018-08-16T09:18:53.683Z,54.20
2018-08-16T09:21:22.136Z,54.20
2018-08-16T09:23:51.204Z,54.80
2018-08-16T09:26:24.847Z,54.10
2018-08-16T09:28:53.287Z,54.20
2018-08-16T09:31:33.367Z,54.10
2018-08-16T09:34:18.747Z,54.10
2018-08-16T09:36:47.141Z,54.10
2018-08-16T09:39:15.597Z,54.00
2018-08-16T09:41:44.052Z,54.00
2018-08-16T09:44:12.563Z,54.00
2018-08-16T09:47:03.525Z,54.10
2018-08-16T09:49:33.644Z,54.00
2018-08-16T09:52:02.249Z,54.00
2018-08-16T09:54:31.095Z,54.10
2018-08-16T09:57:00.803Z,54.00
2018-08-16T09:59:29.311Z,53.90
2018-08-16T10:01:57.766Z,53.80
2018-08-16T10:04:26.254Z,53.80
2018-08-16T10:06:54.677Z,53.80
2018-08-16T10:09:27.240Z,53.80
2018-08-16T10:11:56.283Z,53.60
2018-08-16T10:14:24.691Z,53.60
2018-08-16T10:16:53.140Z,53.70
2018-08-16T10:19:22.071Z,53.60
2018-08-16T10:21:50.507Z,53.60
2018-08-16T10:24:18.964Z,53.50
2018-08-16T10:26:47.447Z,53.40
2018-08-16T10:29:15.840Z,53.40
2018-08-16T10:31:44.532Z,53.50
2018-08-16T10:34:13.114Z,53.40
2018-08-16T10:36:41.508Z,53.40
2018-08-16T10:39:12.451Z,53.40
2018-08-16T10:41:41.229Z,53.40
2018-08-16T10:44:09.651Z,53.40
2018-08-16T10:46:38.129Z,53.40
2018-08-16T10:49:06.543Z,53.20
2018-08-16T10:51:35.094Z,53.20
2018-08-16T10:54:03.584Z,53.40
2018-08-16T10:56:32.262Z,53.40
2018-08-16T10:59:00.692Z,53.30
2018-08-16T11:01:29.586Z,53.40
2018-08-16T11:03:57.953Z,53.40
2018-08-16T11:06:26.389Z,53.50
2018-08-16T11:08:54.809Z,53.40
2018-08-16T11:11:23.275Z,53.30
2018-08-16T11:13:51.701Z,53.30
2018-08-16T11:16:20.114Z,53.20
2018-08-16T11:18:48.532Z,53.20
2018-08-16T11:21:16.959Z,53.20
2018-08-16T11:23:45.437Z,53.20
2018-08-16T11:26:13.943Z,53.20
2018-08-16T11:28:42.368Z,53.80
2018-08-16T11:31:10.823Z,53.40
2018-08-16T11:33:39.387Z,53.50
2018-08-16T11:36:07.814Z,53.40
2018-08-16T11:38:36.315Z,53.10
2018-08-16T11:41:04.840Z,53.10
2018-08-16T11:43:33.251Z,53.10
2018-08-16T11:46:01.701Z,53.10
2018-08-16T11:48:30.453Z,52.50
2018-08-16T11:50:58.945Z,52.20
2018-08-16T11:53:27.372Z,51.90
2018-08-16T11:55:55.787Z,51.80
2018-08-16T11:58:24.425Z,52.20
2018-08-16T12:00:52.884Z,51.40
2018-08-16T12:03:21.305Z,51.00
2018-08-16T12:05:49.724Z,50.80
2018-08-16T12:08:18.152Z,50.50
2018-08-16T12:10:46.674Z,50.20
2018-08-16T12:13:15.139Z,49.90
2018-08-16T12:15:43.596Z,50.30
2018-08-16T12:18:12.027Z,49.90
2018-08-16T12:20:40.511Z,49.90
2018-08-16T12:23:09.012Z,49.70
2018-08-16T12:25:37.424Z,49.40
2018-08-16T12:28:05.817Z,49.00
2018-08-16T12:30:34.231Z,48.80
2018-08-16T12:33:02.694Z,48.70
2018-08-16T12:35:31.116Z,48.30
2018-08-16T12:37:59.545Z,48.30
2018-08-16T12:40:27.994Z,48.20
2018-08-16T12:42:56.541Z,47.90
2018-08-16T12:45:25.073Z,47.90
2018-08-16T12:47:53.631Z,48.00
2018-08-16T12:50:22.032Z,48.00
2018-08-16T12:52:51.025Z,48.60
2018-08-16T12:55:19.421Z,48.00
2018-08-16T12:57:47.773Z,48.00
2018-08-16T13:00:17.606Z,48.20
2018-08-16T13:02:46.993Z,48.50
2018-08-16T13:05:15.361Z,48.90
2018-08-16T13:07:43.773Z,49.00
2018-08-16T13:10:12.855Z,49.20
2018-08-16T13:12:41.218Z,49.20
2018-08-16T13:15:10.453Z,49.20
2018-08-16T13:17:39.431Z,49.00
2018-08-16T13:20:08.523Z,49.20
2018-08-16T13:22:36.907Z,50.70
2018-08-16T13:25:05.418Z,51.10
2018-08-16T13:27:33.884Z,51.60
2018-08-16T13:30:02.275Z,51.30
2018-08-16T13:32:30.585Z,51.20
2018-08-16T13:34:59.330Z,51.80
2018-08-16T13:37:27.768Z,50.60
2018-08-16T13:39:56.156Z,49.70
2018-08-16T13:42:24.573Z,49.20
2018-08-16T13:44:53.011Z,48.90
2018-08-16T13:47:21.438Z,48.90
2018-08-16T13:49:49.802Z,48.60
2018-08-16T13:52:18.171Z,49.10
2018-08-16T13:54:46.512Z,49.10
2018-08-16T13:57:14.837Z,48.60
2018-08-16T13:59:43.165Z,48.40
2018-08-16T14:02:11.808Z,48.40
2018-08-16T14:04:40.247Z,48.30
2018-08-16T14:07:08.704Z,48.20
2018-08-16T14:09:37.112Z,48.30
2018-08-16T14:12:05.567Z,48.90
2018-08-16T14:14:34.023Z,48.30
2018-08-16T14:17:02.435Z,48.40
2018-08-16T14:19:30.856Z,48.30
2018-08-16T14:21:59.652Z,48.40
2018-08-16T14:24:28.085Z,48.80
2018-08-16T14:26:56.578Z,49.10
2018-08-16T14:29:28.777Z,49.20
2018-08-16T14:31:57.221Z,49.50
2018-08-16T14:34:25.630Z,49.50
2018-08-16T14:36:54.043Z,49.60
2018-08-16T14:39:22.546Z,49.70
2018-08-16T14:41:50.976Z,49.80
2018-08-16T14:44:19.419Z,50.20
2018-08-16T14:46:51.853Z,49.70
2018-08-16T14:49:20.562Z,49.50
2018-08-16T14:51:49.666Z,49.00
2018-08-16T14:54:18.171Z,48.90
2018-08-16T14:56:46.889Z,48.80
2018-08-16T14:59:19.111Z,48.70
2018-08-16T15:01:47.432Z,48.50
2018-08-16T15:04:15.846Z,48.20
2018-08-16T15:06:44.176Z,48.20
2018-08-16T15:09:12.805Z,48.00
2018-08-16T15:11:41.600Z,48.10
2018-08-16T15:14:09.936Z,49.00
2018-08-16T15:16:38.549Z,50.10
2018-08-16T15:19:06.958Z,50.40
2018-08-16T15:21:35.522Z,51.10
2018-08-16T15:24:04.020Z,51.20
2018-08-16T15:26:32.451Z,51.10
2018-08-16T15:29:01.045Z,51.30
2018-08-16T15:31:29.388Z,51.30
2018-08-16T15:33:57.706Z,51.20
2018-08-16T16:08:35.008Z,51.80
2018-08-16T16:11:03.404Z,52.50
2018-08-16T16:13:32.012Z,51.90
2018-08-16T16:16:00.380Z,51.40
2018-08-16T16:18:28.753Z,50.70
2018-08-16T16:20:57.208Z,50.70
2018-08-16T16:23:25.580Z,50.30
2018-08-16T16:25:53.995Z,49.60
2018-08-16T16:28:22.338Z,49.70
2018-08-16T16:30:50.777Z,49.10
2018-08-16T16:33:19.294Z,49.10
2018-08-16T16:35:48.021Z,49.30
2018-08-16T16:38:19.813Z,49.70
2018-08-16T16:40:48.160Z,50.10
2018-08-16T16:43:16.759Z,49.80
2018-08-16T16:45:45.121Z,49.40
2018-08-16T16:48:13.550Z,49.50
2018-08-16T16:50:42.769Z,49.50
2018-08-16T16:53:11.165Z,49.90
2018-08-16T16:55:39.501Z,50.80
2018-08-16T16:58:07.866Z,51.80
2018-08-16T17:00:36.206Z,52.50
2018-08-16T17:03:04.752Z,52.30
2018-08-16T17:05:33.487Z,51.70
2018-08-16T17:08:02.074Z,52.30
2018-08-16T17:10:30.510Z,52.80
2018-08-16T17:12:59.102Z,52.60
2018-08-16T17:15:27.625Z,52.40
2018-08-16T17:17:56.125Z,51.70
2018-08-16T17:20:24.481Z,52.10
2018-08-16T17:22:52.812Z,51.80
2018-08-16T17:25:21.143Z,51.70
2018-08-16T17:27:49.568Z,51.60
2018-08-16T17:30:18.044Z,51.70
2018-08-16T17:32:46.501Z,51.80
2018-08-16T17:35:14.869Z,51.70
2018-08-16T17:37:43.227Z,51.90
2018-08-16T17:40:11.726Z,51.90
2018-08-16T17:42:40.314Z,51.80
2018-08-16T17:45:08.685Z,51.70
2018-08-16T17:47:37.229Z,51.80
2018-08-16T17:50:05.807Z,51.70
2018-08-16T17:52:34.527Z,51.90
2018-08-16T17:55:02.870Z,51.80
2018-08-16T17:57:31.207Z,51.70
2018-08-16T17:59:59.540Z,51.70
2018-08-16T18:02:27.893Z,51.90
2018-08-16T18:04:56.678Z,51.40
2018-08-16T18:07:25.115Z,51.40
2018-08-16T18:09:57.193Z,51.20
2018-08-16T18:12:25.948Z,50.80
2018-08-16T18:14:54.380Z,51.30
2018-08-16T18:17:23.206Z,51.90
2018-08-16T18:19:51.884Z,52.20
2018-08-16T18:22:20.345Z,52.30
2018-08-16T18:24:48.783Z,52.10
2018-08-16T18:27:17.446Z,51.80
2018-08-16T18:29:45.884Z,52.30
2018-08-16T18:32:14.435Z,53.20
2018-08-16T18:34:43.608Z,52.60
2018-08-16T18:37:12.367Z,52.30
2018-08-16T18:39:40.870Z,52.40
2018-08-16T18:42:09.281Z,52.70
2018-08-16T18:44:37.742Z,52.90
2018-08-16T18:47:06.221Z,52.70
2018-08-16T18:49:34.653Z,52.60
2018-08-16T18:52:03.454Z,52.70
2018-08-16T18:54:32.043Z,52.80
2018-08-16T18:57:00.776Z,53.00
2018-08-16T18:59:29.277Z,53.40
2018-08-16T19:01:57.984Z,53.60
2018-08-16T19:04:26.465Z,53.00
2018-08-16T19:06:55.067Z,52.80
2018-08-16T19:09:23.835Z,52.90
2018-08-16T19:11:52.384Z,52.60
2018-08-16T19:14:20.817Z,52.40
2018-08-16T19:16:49.247Z,52.30
2018-08-16T19:19:17.950Z,52.20
2018-08-16T19:21:46.962Z,52.70
2018-08-16T19:24:15.529Z,52.70
2018-08-16T19:26:44.219Z,52.40
2018-08-16T19:29:12.623Z,52.10
2018-08-16T19:31:41.041Z,52.30
2018-08-16T19:34:09.503Z,52.10
2018-08-16T19:36:37.968Z,51.90
2018-08-16T19:39:09.003Z,52.40
2018-08-16T19:41:37.602Z,52.40
2018-08-16T19:44:06.070Z,52.20
2018-08-16T19:46:34.547Z,51.90
2018-08-16T19:49:03.027Z,51.70
2018-08-16T19:51:31.564Z,52.70
2018-08-16T19:53:59.970Z,53.20
2018-08-16T19:56:28.397Z,54.30
2018-08-16T19:58:56.828Z,54.50
2018-08-16T20:01:25.387Z,54.70
2018-08-16T20:03:53.746Z,54.40
2018-08-16T20:06:22.222Z,54.10
2018-08-16T20:08:50.686Z,53.40
2018-08-16T20:11:19.107Z,52.90
2018-08-16T20:13:47.737Z,52.40
2018-08-16T20:16:16.197Z,51.90
2018-08-16T20:18:44.625Z,51.50
2018-08-16T20:21:13.048Z,51.30
2018-08-16T20:23:41.568Z,51.10
2018-08-16T20:26:10.053Z,50.90
2018-08-16T20:28:38.476Z,50.80
2018-08-16T20:31:06.909Z,50.70
2018-08-16T20:33:35.321Z,50.50
2018-08-16T20:36:03.790Z,50.50
2018-08-16T20:38:32.284Z,50.70
2018-08-16T20:41:00.765Z,50.70
2018-08-16T20:43:29.281Z,50.50
2018-08-16T20:45:57.767Z,50.80
2018-08-16T20:48:26.204Z,51.00
2018-08-16T20:50:54.649Z,51.00
2018-08-16T20:53:23.216Z,51.00
2018-08-16T20:55:51.635Z,51.10
2018-08-16T20:58:20.090Z,51.00
2018-08-16T21:00:48.542Z,51.00
2018-08-16T21:03:16.984Z,51.10
2018-08-16T21:05:45.409Z,51.10
2018-08-16T21:08:13.886Z,51.20
2018-08-16T21:10:42.320Z,51.10
2018-08-16T21:13:10.931Z,51.20
2018-08-16T21:15:39.641Z,51.40
2018-08-16T21:18:08.336Z,51.50
2018-08-16T21:20:36.740Z,51.60
2018-08-16T21:23:05.269Z,51.50
2018-08-16T21:25:33.758Z,51.70
2018-08-16T21:28:02.318Z,51.80
2018-08-16T21:30:30.817Z,51.90
2018-08-16T21:32:59.205Z,52.10
2018-08-16T21:35:27.694Z,52.20
2018-08-16T21:37:56.158Z,52.50
2018-08-16T21:40:24.615Z,52.40
2018-08-16T21:42:53.071Z,52.60
2018-08-16T21:45:21.531Z,53.00
2018-08-16T21:47:50.212Z,53.00
2018-08-16T21:50:18.695Z,53.10
2018-08-16T21:52:47.122Z,53.30
2018-08-16T21:55:15.561Z,53.40
2018-08-16T21:57:44.012Z,53.60
2018-08-16T22:00:18.971Z,54.00
2018-08-16T22:02:47.432Z,54.20
2018-08-16T22:05:15.873Z,54.40
2018-08-16T22:08:16.051Z,54.60
2018-08-16T22:10:44.539Z,54.70
2018-08-16T22:13:13.029Z,54.80
2018-08-16T22:15:42.144Z,54.90
2018-08-16T22:18:10.618Z,54.90
2018-08-16T22:20:39.074Z,55.00
2018-08-16T22:23:07.525Z,55.20
2018-08-16T22:25:35.962Z,55.50
2018-08-16T22:28:04.442Z,55.50
2018-08-16T22:30:32.890Z,55.60
2018-08-16T22:33:01.356Z,55.80
2018-08-16T22:35:29.807Z,55.90
2018-08-16T22:37:58.435Z,56.10
2018-08-16T22:40:26.968Z,56.20
2018-08-16T22:42:55.429Z,56.30
2018-08-16T22:45:23.904Z,56.40
2018-08-16T22:47:52.341Z,56.70
2018-08-16T22:50:20.880Z,56.80
2018-08-16T22:52:49.361Z,57.00
2018-08-16T22:55:17.864Z,57.70
2018-08-16T22:57:46.407Z,57.30
2018-08-16T23:00:14.865Z,57.50
2018-08-16T23:02:43.424Z,57.50
2018-08-16T23:05:12.004Z,57.60
2018-08-16T23:07:40.455Z,57.80
2018-08-16T23:10:08.937Z,57.90
2018-08-16T23:12:37.335Z,57.90
2018-08-16T23:15:06.451Z,57.90
2018-08-16T23:17:34.874Z,57.90
2018-08-16T23:20:03.242Z,58.40
2018-08-16T23:22:31.671Z,57.70
2018-08-16T23:25:00.173Z,57.60
2018-08-16T23:27:28.673Z,57.50
2018-08-16T23:29:57.100Z,57.40
2018-08-16T23:32:25.528Z,57.40
2018-08-16T23:34:53.932Z,57.30
2018-08-16T23:37:22.355Z,57.10
2018-08-16T23:39:50.775Z,57.10
2018-08-16T23:42:19.249Z,57.00
2018-08-16T23:44:47.629Z,57.00
2018-08-16T23:47:20.695Z,56.90
2018-08-16T23:49:49.129Z,56.70
2018-08-16T23:52:17.489Z,56.60
2018-08-16T23:54:45.817Z,56.70
2018-08-16T23:57:14.197Z,56.50
2018-08-16T23:59:42.544Z,56.50
